logo
Search for airport 
image banner adimage banner adimage banner ad
image banner ad

CL32 - Garland Center

Located in Los Angeles, United States

ICAO - CL32, IATA -

Data provided by Airmate  

General information

Coordinates: N34°3'3" W118°15'56"
Elevation is 430 feet MSL.
Magnetic variation is 14° East
View others Airports in California

Operational data

Special qualification required
Current time UTC:
Current local time:
METAR: KHHR 100153Z 26003KT 10SM CLR 14/08 A3011 RMK AO2 SLP194 T01440083
View NOTAMs / SUP AIP / TFR affecting this airport [VIEW]
Communications frequencies: [VIEW]

Runways:

Airport contact information

Address: Los Angeles United States

Satellite view of CL32